Time;durP1;ratioP1;P1;durP2;ratioP2;P2;SDS_P1;SDS_P2;PMS_P1;PMS_P2;Temp;Humidity;BMP_temperature;BMP_pressure;BME280_temperature;BME280_humidity;BME280_pressure;Samples;Min_cycle;Max_cycle;Signal;HPM_P1;HPM_P2
2022/09/08 00:01:47;;;;;;;7.78;1.50;;;18.00;78.80;;;;;;5042950;28;20558;-83
2022/09/08 00:04:12;;;;;;;16.10;1.88;;;17.90;78.90;;;;;;5035149;28;20512;-83
2022/09/08 00:06:48;;;;;;;18.67;2.17;;;17.90;78.80;;;;;;5035191;28;20073;-83
2022/09/08 00:09:13;;;;;;;6.30;1.52;;;17.90;78.80;;;;;;5034908;28;20458;-83
2022/09/08 00:11:40;;;;;;;7.65;1.70;;;17.90;78.80;;;;;;5033889;28;20021;-82
2022/09/08 00:14:07;;;;;;;4.35;1.58;;;17.90;78.80;;;;;;5035291;28;20036;-82
2022/09/08 00:16:33;;;;;;;11.70;1.80;;;17.90;78.80;;;;;;5032798;28;20033;-83
2022/09/08 00:18:59;;;;;;;10.13;1.80;;;17.90;78.80;;;;;;5033259;28;20474;-84
2022/09/08 00:21:27;;;;;;;12.20;1.65;;;17.80;79.00;;;;;;5033531;28;20017;-83
2022/09/08 00:23:55;;;;;;;11.43;1.77;;;17.80;79.00;;;;;;5033637;28;20243;-83
2022/09/08 00:26:21;;;;;;;11.80;1.40;;;17.80;79.00;;;;;;5034713;28;20728;-82
2022/09/08 00:28:48;;;;;;;8.70;1.65;;;17.80;79.00;;;;;;5034783;28;20032;-83
2022/09/08 00:31:14;;;;;;;10.93;2.65;;;17.80;79.20;;;;;;5034933;28;20017;-82
2022/09/08 00:33:39;;;;;;;11.95;1.35;;;17.80;79.30;;;;;;5035613;28;20094;-83
2022/09/08 00:36:07;;;;;;;12.65;1.88;;;17.80;79.30;;;;;;5040377;28;20108;-83
2022/09/08 00:38:33;;;;;;;14.07;1.55;;;17.80;79.20;;;;;;5033805;28;20144;-83
2022/09/08 00:40:59;;;;;;;7.57;1.40;;;17.80;79.30;;;;;;5035161;28;20550;-83
2022/09/08 00:43:42;;;;;;;9.02;1.40;;;17.80;79.30;;;;;;5035080;28;20028;-83
2022/09/08 00:46:25;;;;;;;10.68;2.28;;;17.80;79.50;;;;;;5034950;28;20025;-83
2022/09/08 00:49:13;;;;;;;15.77;2.40;;;17.80;79.40;;;;;;5044611;28;20037;-84
2022/09/08 00:51:42;;;;;;;10.57;1.75;;;17.80;79.40;;;;;;5054683;28;20021;-83
2022/09/08 00:54:12;;;;;;;9.00;2.00;;;17.80;79.60;;;;;;5052599;28;20385;-83
2022/09/08 00:56:39;;;;;;;10.95;1.52;;;17.80;79.80;;;;;;5045934;28;20029;-82
2022/09/08 00:59:06;;;;;;;8.88;1.70;;;17.80;79.70;;;;;;5034879;28;20087;-83
2022/09/08 01:01:33;;;;;;;13.70;2.28;;;17.80;79.80;;;;;;5034602;28;20477;-83
2022/09/08 01:03:59;;;;;;;9.60;1.50;;;17.80;79.70;;;;;;5034317;28;20034;-83
2022/09/08 01:15:06;;;;;;;4.57;1.42;;;17.80;79.90;;;;;;5057988;28;20106;-84
2022/09/08 01:17:31;;;;;;;12.93;2.25;;;17.80;80.20;;;;;;5056869;28;20032;-83
2022/09/08 01:20:00;;;;;;;14.63;2.00;;;17.80;80.40;;;;;;5042953;28;20025;-84
2022/09/08 01:22:55;;;;;;;9.80;1.90;;;17.80;80.50;;;;;;5037965;28;20073;-84
2022/09/08 01:25:29;;;;;;;7.05;1.77;;;17.80;80.40;;;;;;5047839;28;20037;-84
2022/09/08 01:28:01;;;;;;;16.65;1.83;;;17.80;80.30;;;;;;5051962;28;20029;-84
2022/09/08 01:30:27;;;;;;;10.88;1.83;;;17.80;80.30;;;;;;5037105;28;20105;-83
2022/09/08 01:32:53;;;;;;;8.15;1.50;;;17.80;80.40;;;;;;5037659;28;20111;-83
2022/09/08 01:35:34;;;;;;;12.48;1.80;;;17.80;80.50;;;;;;5064404;28;20126;-83
2022/09/08 01:38:02;;;;;;;12.73;2.13;;;17.80;80.70;;;;;;5077612;28;20438;-82
2022/09/08 01:40:28;;;;;;;19.25;2.10;;;17.70;80.90;;;;;;5077724;28;20101;-83
2022/09/08 01:42:54;;;;;;;9.57;2.40;;;17.70;81.00;;;;;;5044908;28;20029;-83
2022/09/08 01:45:19;;;;;;;6.53;2.25;;;17.70;80.90;;;;;;5037617;28;20439;-82
2022/09/08 01:47:45;;;;;;;9.57;1.85;;;17.70;80.90;;;;;;5035801;28;20037;-83
2022/09/08 01:50:11;;;;;;;10.75;1.55;;;17.70;81.10;;;;;;5037186;28;20029;-83
2022/09/08 01:52:36;;;;;;;10.43;2.33;;;17.70;81.10;;;;;;5037383;28;20036;-82
2022/09/08 01:55:02;;;;;;;7.90;1.98;;;17.70;81.10;;;;;;5037394;28;20033;-82
2022/09/08 01:57:28;;;;;;;7.80;2.10;;;17.70;81.30;;;;;;5044014;28;20059;-83
2022/09/08 01:59:54;;;;;;;13.45;2.03;;;17.70;81.40;;;;;;5041462;28;20044;-82
2022/09/08 02:02:20;;;;;;;12.10;2.05;;;17.70;81.40;;;;;;5035917;28;20521;-82
2022/09/08 02:04:45;;;;;;;11.65;1.92;;;17.70;81.60;;;;;;5034996;28;20026;-83
2022/09/08 02:07:11;;;;;;;15.75;2.28;;;17.70;81.60;;;;;;5037127;28;20573;-83
2022/09/08 02:09:37;;;;;;;11.90;1.83;;;17.70;81.80;;;;;;5037230;28;20044;-83
2022/09/08 02:12:04;;;;;;;14.65;2.13;;;17.70;81.80;;;;;;5035492;28;20405;-82
2022/09/08 02:14:30;;;;;;;7.10;1.83;;;17.70;81.90;;;;;;5037183;28;20061;-83
2022/09/08 02:16:56;;;;;;;16.08;1.88;;;17.70;81.90;;;;;;5036744;28;20033;-83
2022/09/08 02:19:22;;;;;;;9.02;1.80;;;17.70;82.10;;;;;;5035769;28;20026;-83
2022/09/08 02:21:47;;;;;;;12.80;2.33;;;17.70;82.00;;;;;;5036907;28;20055;-83
2022/09/08 02:24:13;;;;;;;6.90;1.55;;;17.70;82.10;;;;;;5034857;28;20035;-83
2022/09/08 02:26:40;;;;;;;11.77;1.98;;;17.70;82.40;;;;;;5036904;28;20029;-84
2022/09/08 02:29:12;;;;;;;5.97;1.88;;;17.70;82.20;;;;;;5035535;28;20035;-82
2022/09/08 02:31:38;;;;;;;11.32;1.80;;;17.70;82.10;;;;;;5036547;28;20025;-83
2022/09/08 02:34:04;;;;;;;14.80;2.40;;;17.70;82.20;;;;;;5042847;28;20028;-83
2022/09/08 02:36:30;;;;;;;4.70;1.42;;;17.70;82.20;;;;;;5076636;28;20031;-82
2022/09/08 02:38:56;;;;;;;6.95;1.40;;;17.70;82.20;;;;;;5063089;28;20481;-81
2022/09/08 02:41:24;;;;;;;14.65;1.92;;;17.70;82.40;;;;;;5035871;28;20083;-82
2022/09/08 02:43:50;;;;;;;10.05;1.75;;;17.70;82.60;;;;;;5036547;28;20030;-83
2022/09/08 02:46:17;;;;;;;12.20;1.70;;;17.70;82.70;;;;;;5036356;28;20097;-82
2022/09/08 02:48:43;;;;;;;14.48;2.13;;;17.70;82.50;;;;;;5040985;28;20370;-82
2022/09/08 02:51:12;;;;;;;7.35;1.30;;;17.60;82.90;;;;;;5048640;28;20075;-83
2022/09/08 02:53:39;;;;;;;7.53;1.65;;;17.60;82.90;;;;;;5054947;28;20032;-82
2022/09/08 02:56:05;;;;;;;7.90;2.08;;;17.60;82.90;;;;;;5054751;28;20017;-82
2022/09/08 02:58:32;;;;;;;9.95;1.80;;;17.60;82.90;;;;;;5055528;28;20024;-83
2022/09/08 03:00:58;;;;;;;12.98;2.22;;;17.60;83.00;;;;;;5056039;28;20021;-82
2022/09/08 03:03:24;;;;;;;8.80;1.83;;;17.60;83.00;;;;;;5035400;28;20058;-82
2022/09/08 03:05:50;;;;;;;13.57;1.92;;;17.60;83.00;;;;;;5035742;28;20086;-82
2022/09/08 03:08:17;;;;;;;13.65;2.60;;;17.60;83.20;;;;;;5047980;28;20024;-82
2022/09/08 03:10:44;;;;;;;12.40;1.67;;;17.60;83.20;;;;;;5034781;28;20029;-82
2022/09/08 03:13:10;;;;;;;8.13;2.08;;;17.60;83.20;;;;;;5035915;28;20026;-83
2022/09/08 03:15:37;;;;;;;14.63;2.30;;;17.60;83.10;;;;;;5035680;28;20033;-83
2022/09/08 03:18:04;;;;;;;13.63;1.65;;;17.70;83.00;;;;;;5034502;28;20045;-82
2022/09/08 03:20:31;;;;;;;11.13;2.25;;;17.70;83.10;;;;;;5034446;28;20029;-82
2022/09/08 03:22:58;;;;;;;10.82;2.40;;;17.60;83.30;;;;;;5035796;28;20030;-82
2022/09/08 03:25:24;;;;;;;10.35;2.10;;;17.60;83.20;;;;;;5035823;28;20033;-81
2022/09/08 03:27:50;;;;;;;9.05;1.83;;;17.60;83.30;;;;;;5034593;28;20025;-83
2022/09/08 03:30:17;;;;;;;9.82;2.03;;;17.60;83.40;;;;;;5035791;28;20022;-82
2022/09/08 03:32:45;;;;;;;8.68;1.77;;;17.60;83.30;;;;;;5036915;28;20086;-82
2022/09/08 03:35:12;;;;;;;10.88;2.22;;;17.70;83.30;;;;;;5067483;28;20025;-82
2022/09/08 03:37:38;;;;;;;8.73;1.70;;;17.60;83.30;;;;;;5046460;28;20033;-82
2022/09/08 03:40:07;;;;;;;10.23;1.80;;;17.70;83.20;;;;;;5034221;28;20401;-82
2022/09/08 03:42:34;;;;;;;10.55;1.60;;;17.70;83.10;;;;;;5037600;28;20045;-81
2022/09/08 03:45:00;;;;;;;6.68;1.63;;;17.70;83.10;;;;;;5055450;28;20079;-81
2022/09/08 03:47:26;;;;;;;7.80;1.70;;;17.60;83.20;;;;;;5054145;28;20025;-82
2022/09/08 03:49:52;;;;;;;8.27;1.60;;;17.70;83.20;;;;;;5038747;28;20018;-81
2022/09/08 03:52:18;;;;;;;5.13;1.58;;;17.60;83.20;;;;;;5034708;28;20045;-82
2022/09/08 03:54:50;;;;;;;5.25;1.30;;;17.70;83.20;;;;;;5034320;28;20082;-81
2022/09/08 03:57:21;;;;;;;13.35;1.70;;;17.70;83.00;;;;;;5034378;28;20040;-82
2022/09/08 04:00:01;;;;;;;8.95;1.55;;;17.70;83.10;;;;;;5035517;28;20160;-82
2022/09/08 04:02:29;;;;;;;;;;;17.70;83.00;;;;;;5035434;28;20045;-83
2022/09/08 04:04:56;;;;;;;10.27;1.55;;;17.70;83.10;;;;;;5033736;28;20000;-82
2022/09/08 04:07:24;;;;;;;11.80;1.45;;;17.70;83.00;;;;;;5035264;28;20125;-81
2022/09/08 04:09:49;;;;;;;11.90;1.88;;;17.70;83.00;;;;;;5034145;28;20026;-82
2022/09/08 04:12:15;;;;;;;11.05;2.22;;;17.80;83.00;;;;;;5046055;28;20036;-82
2022/09/08 04:14:41;;;;;;;8.45;1.52;;;17.80;83.00;;;;;;5055067;28;20121;-81
2022/09/08 04:17:07;;;;;;;19.42;3.05;;;17.80;82.90;;;;;;5053833;28;20025;-82
2022/09/08 04:19:33;;;;;;;15.15;2.83;;;17.80;82.80;;;;;;5054007;28;20029;-82
2022/09/08 04:21:59;;;;;;;10.63;1.70;;;17.80;82.90;;;;;;5052274;28;20400;-82
2022/09/08 04:24:25;;;;;;;9.35;2.05;;;17.80;82.80;;;;;;5053845;28;20025;-82
2022/09/08 04:26:51;;;;;;;13.00;2.17;;;17.70;82.90;;;;;;5039363;28;20030;-82
2022/09/08 04:29:17;;;;;;;8.77;1.50;;;17.70;82.90;;;;;;5041406;28;20018;-79
2022/09/08 04:31:44;;;;;;;6.80;1.52;;;17.70;83.00;;;;;;5053278;28;20457;-75
2022/09/08 04:34:10;;;;;;;8.65;1.52;;;17.70;83.00;;;;;;5057868;28;20029;-76
2022/09/08 04:36:36;;;;;;;10.25;1.92;;;17.70;82.90;;;;;;5051366;28;20033;-76
2022/09/08 04:39:02;;;;;;;13.50;1.85;;;17.70;82.80;;;;;;5034621;28;20404;-76
2022/09/08 04:41:30;;;;;;;5.25;1.83;;;17.70;83.00;;;;;;5051189;28;20036;-77
2022/09/08 04:44:00;;;;;;;15.32;2.00;;;17.70;83.00;;;;;;5040827;28;20029;-77
2022/09/08 04:46:26;;;;;;;12.53;3.07;;;17.70;83.00;;;;;;5040593;28;20547;-76
2022/09/08 04:48:53;;;;;;;9.15;1.40;;;17.60;83.00;;;;;;5038911;28;20265;-75
2022/09/08 04:51:26;;;;;;;11.43;1.55;;;17.70;82.90;;;;;;5036827;28;20053;-76
2022/09/08 04:53:52;;;;;;;10.43;1.80;;;17.60;82.90;;;;;;5038737;28;20087;-77
2022/09/08 04:56:19;;;;;;;7.22;1.77;;;17.60;83.00;;;;;;5042881;28;20037;-78
2022/09/08 04:58:46;;;;;;;5.95;1.50;;;17.60;82.90;;;;;;5049109;28;20025;-78
2022/09/08 05:01:18;;;;;;;5.75;1.52;;;17.60;82.80;;;;;;5038383;28;20033;-78
2022/09/08 05:03:45;;;;;;;9.85;1.63;;;17.60;82.80;;;;;;5044768;28;20037;-78
2022/09/08 05:06:13;;;;;;;10.70;1.90;;;17.70;82.60;;;;;;5054167;28;20737;-78
2022/09/08 05:08:42;;;;;;;7.00;1.35;;;17.70;82.50;;;;;;5037244;28;20022;-78
2022/09/08 05:11:09;;;;;;;9.13;2.95;;;17.70;82.40;;;;;;5043583;28;20489;-79
2022/09/08 05:13:35;;;;;;;11.13;1.73;;;17.70;82.40;;;;;;5047833;28;20033;-78
2022/09/08 05:16:07;;;;;;;11.50;1.65;;;17.70;82.30;;;;;;5058281;28;20025;-77
2022/09/08 05:18:33;;;;;;;5.78;1.67;;;17.70;82.40;;;;;;5048171;28;20542;-79
2022/09/08 05:20:59;;;;;;;12.27;1.73;;;17.70;82.30;;;;;;5045478;28;20026;-77
2022/09/08 05:23:24;;;;;;;8.32;1.45;;;17.70;82.20;;;;;;5038629;28;20103;-78
2022/09/08 05:25:59;;;;;;;11.75;2.15;;;17.70;82.20;;;;;;5039303;28;20021;-79
2022/09/08 05:28:26;;;;;;;9.48;2.30;;;17.70;82.30;;;;;;5048913;28;20021;-77
2022/09/08 05:31:14;;;;;;;7.60;1.27;;;17.60;82.20;;;;;;5057503;28;20699;-77
2022/09/08 05:33:39;;;;;;;7.90;1.60;;;17.60;82.30;;;;;;5047531;28;20064;-77
2022/09/08 05:36:17;;;;;;;7.50;1.92;;;17.60;82.20;;;;;;5076839;28;20033;-77
2022/09/08 05:38:44;;;;;;;7.60;1.80;;;17.60;82.30;;;;;;5037812;28;20114;-77
2022/09/08 05:41:10;;;;;;;8.35;2.00;;;17.50;82.40;;;;;;5038025;28;20030;-79
2022/09/08 05:44:53;;;;;;;15.30;2.05;;;17.50;82.50;;;;;;5095899;27;20415;-77
2022/09/08 05:47:19;;;;;;;16.33;2.20;;;17.50;82.50;;;;;;5051399;28;20404;-79
2022/09/08 05:49:45;;;;;;;9.35;1.75;;;17.50;82.60;;;;;;5050999;28;20107;-78
2022/09/08 05:52:11;;;;;;;8.07;1.70;;;17.50;82.80;;;;;;5055062;28;20017;-79
2022/09/08 05:54:37;;;;;;;12.07;1.92;;;17.50;82.80;;;;;;5068872;28;20017;-79
2022/09/08 05:57:04;;;;;;;9.15;1.98;;;17.40;82.90;;;;;;5053114;28;20036;-79
2022/09/08 05:59:29;;;;;;;11.27;2.00;;;17.50;82.80;;;;;;5071100;28;20131;-79
2022/09/08 06:01:55;;;;;;;10.00;2.80;;;17.40;82.90;;;;;;5072631;28;20059;-80
2022/09/08 06:04:21;;;;;;;12.38;1.85;;;17.40;82.90;;;;;;5072074;28;20060;-78
2022/09/08 06:06:47;;;;;;;10.45;2.22;;;17.40;82.90;;;;;;5049057;28;20079;-79
2022/09/08 06:09:12;;;;;;;11.40;1.95;;;17.40;82.90;;;;;;5051378;28;20026;-79
2022/09/08 06:11:40;;;;;;;11.70;2.30;;;17.40;82.90;;;;;;5051335;28;20036;-79
2022/09/08 06:14:05;;;;;;;9.95;1.63;;;17.50;82.90;;;;;;5070695;28;20040;-77
2022/09/08 06:16:32;;;;;;;6.85;1.58;;;17.50;82.90;;;;;;5069573;28;20028;-76
2022/09/08 06:18:59;;;;;;;9.82;2.08;;;17.50;82.80;;;;;;5033954;28;20523;-77
2022/09/08 06:21:27;;;;;;;11.38;2.30;;;17.50;82.80;;;;;;5034579;28;20025;-77
2022/09/08 06:23:58;;;;;;;7.80;2.00;;;17.60;82.70;;;;;;5052221;28;20107;-77
2022/09/08 06:26:43;;;;;;;11.48;1.75;;;17.50;82.70;;;;;;5049351;28;20408;-77
2022/09/08 06:29:14;;;;;;;12.10;2.22;;;17.60;82.60;;;;;;5051628;28;20036;-77
2022/09/08 06:32:07;;;;;;;12.40;1.75;;;17.60;82.80;;;;;;5051875;28;20385;-77
2022/09/08 06:34:49;;;;;;;11.82;2.60;;;17.60;82.70;;;;;;5051021;28;20115;-76
2022/09/08 06:37:40;;;;;;;12.02;2.55;;;17.60;82.80;;;;;;5063141;28;20082;-76
2022/09/08 06:40:17;;;;;;;8.40;1.58;;;17.70;82.70;;;;;;5033930;28;20059;-77
2022/09/08 06:42:53;;;;;;;6.65;2.08;;;17.80;82.60;;;;;;5033873;28;20072;-77
2022/09/08 06:45:26;;;;;;;5.97;1.55;;;17.80;82.50;;;;;;5051941;28;20075;-77
2022/09/08 06:48:04;;;;;;;9.57;1.90;;;17.80;82.70;;;;;;5067204;28;20071;-77
2022/09/08 06:50:33;;;;;;;16.13;2.42;;;18.00;82.60;;;;;;5051719;28;20026;-78
2022/09/08 06:53:06;;;;;;;10.52;1.90;;;18.00;82.40;;;;;;5051879;28;20021;-77
2022/09/08 06:55:40;;;;;;;16.40;2.67;;;18.10;82.30;;;;;;5035765;28;20057;-77
2022/09/08 06:58:30;;;;;;;10.77;2.90;;;18.10;82.30;;;;;;5053940;28;20029;-77
2022/09/08 07:01:05;;;;;;;8.67;1.80;;;18.00;82.40;;;;;;5036922;28;20033;-77
2022/09/08 07:03:55;;;;;;;10.02;2.17;;;18.10;82.60;;;;;;5038047;28;20029;-77
2022/09/08 07:06:24;;;;;;;11.30;2.00;;;18.20;82.50;;;;;;5038918;28;20037;-77
2022/09/08 07:09:19;;;;;;;9.70;2.40;;;18.30;82.00;;;;;;5038323;28;20064;-77
2022/09/08 07:12:15;;;;;;;13.90;2.50;;;18.30;82.00;;;;;;5033945;28;20049;-77
2022/09/08 07:15:10;;;;;;;14.15;2.70;;;18.40;81.90;;;;;;5036873;28;20112;-77
2022/09/08 07:17:44;;;;;;;11.63;2.15;;;18.50;81.70;;;;;;5035962;28;20045;-77
2022/09/08 07:20:11;;;;;;;7.13;2.05;;;18.60;81.30;;;;;;5036781;28;20064;-77
2022/09/08 07:22:50;;;;;;;11.18;1.90;;;18.60;81.10;;;;;;5039403;28;20087;-77
2022/09/08 07:25:28;;;;;;;12.23;2.10;;;18.70;80.90;;;;;;5049847;28;20053;-77
2022/09/08 07:28:19;;;;;;;10.00;2.00;;;18.60;81.00;;;;;;5037814;28;20513;-77
2022/09/08 07:30:52;;;;;;;11.20;2.60;;;18.80;81.10;;;;;;5038031;28;20084;-77
2022/09/08 07:33:34;;;;;;;14.70;2.42;;;19.20;80.50;;;;;;5037822;28;20033;-77
2022/09/08 07:36:21;;;;;;;9.93;2.38;;;19.60;79.40;;;;;;5057134;28;20108;-77
2022/09/08 07:38:53;;;;;;;16.02;2.10;;;19.50;79.00;;;;;;5057551;28;20025;-77
2022/09/08 07:41:36;;;;;;;13.00;2.28;;;19.30;79.40;;;;;;5031395;28;20040;-77
2022/09/08 07:44:10;;;;;;;9.45;1.73;;;19.10;79.80;;;;;;5037279;28;20033;-76
2022/09/08 07:47:08;;;;;;;18.02;2.30;;;18.90;80.20;;;;;;5019794;28;20072;-77
2022/09/08 07:49:59;;;;;;;8.38;2.80;;;19.00;80.60;;;;;;5037183;28;20109;-77
2022/09/08 07:52:49;;;;;;;10.13;2.83;;;19.00;80.70;;;;;;5037385;28;20548;-77
2022/09/08 07:55:51;;;;;;;9.32;2.35;;;19.10;80.60;;;;;;5036418;28;20026;-77
2022/09/08 07:58:34;;;;;;;13.15;2.30;;;19.20;80.30;;;;;;5037305;28;20032;-77
2022/09/08 08:01:40;;;;;;;10.68;2.17;;;19.10;80.30;;;;;;5056700;28;20392;-77
2022/09/08 08:04:24;;;;;;;14.40;3.05;;;19.00;80.00;;;;;;5009108;28;20060;-77
2022/09/08 08:06:54;;;;;;;10.27;2.50;;;19.00;80.20;;;;;;5035953;28;20114;-76
2022/09/08 08:09:22;;;;;;;12.60;2.17;;;19.00;80.30;;;;;;5036933;28;20481;-77
2022/09/08 08:12:06;;;;;;;8.18;2.10;;;19.00;80.10;;;;;;5049776;28;20040;-77
2022/09/08 08:14:47;;;;;;;10.55;2.67;;;19.10;79.80;;;;;;5038450;28;20029;-77
2022/09/08 08:17:13;;;;;;;11.65;2.00;;;19.10;79.80;;;;;;5056336;28;20471;-77
2022/09/08 08:20:04;;;;;;;9.57;1.92;;;19.00;79.60;;;;;;5037177;28;20137;-77
2022/09/08 08:22:46;;;;;;;6.78;1.58;;;19.00;79.70;;;;;;5036704;28;20025;-77
2022/09/08 08:25:25;;;;;;;13.02;2.30;;;19.10;79.40;;;;;;5036713;28;20080;-76
2022/09/08 08:28:16;;;;;;;7.50;1.77;;;19.20;78.70;;;;;;5028998;28;20029;-77
2022/09/08 08:31:06;;;;;;;9.00;1.98;;;19.20;78.40;;;;;;5022702;28;20049;-77
2022/09/08 08:33:39;;;;;;;10.05;2.20;;;19.20;78.00;;;;;;5036611;28;20021;-77
2022/09/08 08:36:06;;;;;;;6.03;1.38;;;19.40;78.00;;;;;;5052066;28;20034;-76
2022/09/08 08:38:47;;;;;;;6.75;1.67;;;19.60;77.60;;;;;;5036528;28;20168;-77
2022/09/08 08:41:51;;;;;;;9.85;1.88;;;19.80;76.90;;;;;;5036465;28;20056;-77
2022/09/08 08:44:39;;;;;;;4.32;1.60;;;20.00;76.00;;;;;;5036077;28;20049;-76
2022/09/08 08:47:23;;;;;;;10.52;1.73;;;20.20;75.80;;;;;;5036613;28;20135;-77
2022/09/08 08:50:02;;;;;;;7.70;1.92;;;20.00;75.10;;;;;;5036301;28;20444;-77
2022/09/08 08:52:55;;;;;;;10.20;2.55;;;19.90;75.90;;;;;;5036635;28;20396;-77
2022/09/08 08:55:45;;;;;;;9.88;1.77;;;19.90;76.40;;;;;;5036030;28;20033;-77
2022/09/08 08:58:40;;;;;;;7.70;1.65;;;20.00;75.90;;;;;;5018303;28;20108;-76
2022/09/08 09:01:24;;;;;;;6.30;1.83;;;20.10;75.80;;;;;;5035670;28;20029;-76
2022/09/08 09:04:31;;;;;;;8.52;1.67;;;20.00;75.40;;;;;;5035926;28;20033;-77
2022/09/08 09:07:17;;;;;;;9.45;1.50;;;20.10;74.80;;;;;;5021457;28;20040;-77
2022/09/08 09:10:17;;;;;;;12.38;4.22;;;20.40;74.50;;;;;;5034767;28;20052;-77
2022/09/08 09:13:10;;;;;;;11.52;1.75;;;20.90;73.00;;;;;;5035878;28;20308;-76
2022/09/08 09:15:55;;;;;;;10.07;1.55;;;21.20;71.60;;;;;;5036235;28;20033;-77
2022/09/08 09:18:59;;;;;;;7.00;1.73;;;21.20;72.00;;;;;;5035727;28;20041;-76
2022/09/08 09:21:30;;;;;;;10.98;2.72;;;21.00;72.50;;;;;;5035653;28;20101;-76
2022/09/08 09:24:28;;;;;;;10.18;1.40;;;21.00;72.40;;;;;;5036026;28;20083;-76
2022/09/08 09:26:54;;;;;;;4.90;1.33;;;21.10;73.40;;;;;;5034321;28;20541;-76
2022/09/08 09:29:26;;;;;;;5.40;1.50;;;21.00;72.20;;;;;;5035723;28;20022;-76
2022/09/08 09:32:40;;;;;;;5.32;1.33;;;20.80;71.60;;;;;;5017927;28;20014;-76
2022/09/08 09:35:41;;;;;;;7.25;1.50;;;20.80;71.70;;;;;;5032140;28;20043;-76
2022/09/08 09:38:28;;;;;;;4.93;1.40;;;20.90;71.70;;;;;;5010567;28;20045;-75
2022/09/08 09:41:30;;;;;;;7.13;1.50;;;21.00;70.60;;;;;;5035423;28;20029;-76
2022/09/08 09:44:14;;;;;;;10.25;1.75;;;21.40;71.40;;;;;;5035392;28;20120;-77
2022/09/08 09:46:51;;;;;;;7.20;1.48;;;21.30;69.50;;;;;;5034062;28;20025;-76
2022/09/08 09:49:26;;;;;;;8.35;7.68;;;21.40;69.50;;;;;;5034428;28;20049;-77
2022/09/08 09:52:10;;;;;;;4.60;1.38;;;21.50;67.70;;;;;;5034036;28;20041;-77
2022/09/08 09:54:59;;;;;;;8.77;1.65;;;21.70;67.20;;;;;;5043936;28;20029;-76
2022/09/08 09:57:27;;;;;;;7.25;1.42;;;22.20;66.60;;;;;;5025546;28;20056;-77
2022/09/08 09:59:59;;;;;;;5.32;1.17;;;23.10;65.50;;;;;;5044018;28;20029;-77
2022/09/08 10:02:43;;;;;;;8.48;1.55;;;23.20;63.50;;;;;;5035417;28;20473;-77
2022/09/08 10:05:24;;;;;;;6.95;1.20;;;22.90;62.30;;;;;;5035205;28;20025;-77
2022/09/08 10:08:18;;;;;;;6.97;1.83;;;22.60;62.40;;;;;;5070136;28;20032;-77
2022/09/08 10:11:30;;;;;;;6.95;1.88;;;22.90;62.80;;;;;;5037114;28;20082;-77
2022/09/08 10:14:33;;;;;;;10.13;1.90;;;23.40;61.80;;;;;;5038945;28;20037;-78
2022/09/08 10:17:34;;;;;;;7.18;1.20;;;23.90;60.80;;;;;;5034983;28;20084;-77
2022/09/08 10:20:27;;;;;;;9.30;1.70;;;24.10;61.30;;;;;;5035625;28;20029;-76
2022/09/08 10:23:12;;;;;;;10.95;1.48;;;23.80;60.40;;;;;;5034892;28;20519;-77
2022/09/08 10:26:02;;;;;;;7.05;1.67;;;23.40;61.60;;;;;;5035359;28;20028;-77
2022/09/08 10:28:48;;;;;;;10.55;1.80;;;23.30;61.80;;;;;;5046720;28;20025;-77
2022/09/08 10:31:57;;;;;;;7.35;1.65;;;23.10;62.30;;;;;;5057695;28;20009;-77
2022/09/08 10:34:46;;;;;;;6.80;1.58;;;22.90;63.10;;;;;;5058580;28;20021;-76
2022/09/08 10:37:23;;;;;;;9.75;1.63;;;22.70;62.60;;;;;;5058457;28;20029;-76
2022/09/08 10:40:08;;;;;;;11.02;2.03;;;22.60;62.70;;;;;;5040555;28;20566;-77
2022/09/08 10:42:56;;;;;;;6.97;1.38;;;22.50;62.80;;;;;;5020717;28;20045;-76
2022/09/08 10:45:59;;;;;;;8.27;1.70;;;22.50;63.10;;;;;;5038940;28;20037;-76
2022/09/08 10:48:30;;;;;;;10.48;2.08;;;22.50;62.80;;;;;;5043786;28;20025;-77
2022/09/08 10:51:22;;;;;;;9.45;2.17;;;22.40;62.00;;;;;;5035409;28;20029;-77
2022/09/08 10:54:48;;;;;;;9.05;1.58;;;22.30;63.30;;;;;;5058325;28;20033;-77
2022/09/08 10:57:26;;;;;;;5.97;1.45;;;22.10;63.40;;;;;;5003523;28;20042;-76
2022/09/08 11:00:00;;;;;;;10.38;2.10;;;22.10;63.90;;;;;;5038389;28;20389;-77
2022/09/08 11:02:34;;;;;;;9.25;1.50;;;22.10;63.40;;;;;;5038106;28;20035;-76
2022/09/08 11:05:15;;;;;;;4.20;1.20;;;22.20;63.00;;;;;;5038689;28;20103;-77
2022/09/08 11:07:59;;;;;;;5.20;1.42;;;22.30;63.00;;;;;;5038136;28;20481;-76
2022/09/08 11:10:39;;;;;;;5.90;1.27;;;22.40;63.00;;;;;;5022588;28;20109;-77
2022/09/08 11:13:22;;;;;;;7.93;1.33;;;22.40;62.50;;;;;;5040232;28;20041;-76
2022/09/08 11:15:54;;;;;;;8.73;1.20;;;22.40;64.00;;;;;;5058368;28;20029;-77
2022/09/08 11:18:36;;;;;;;7.15;1.48;;;22.50;62.60;;;;;;5033379;28;20452;-77
2022/09/08 11:21:27;;;;;;;7.13;1.25;;;22.30;61.20;;;;;;5037954;28;20030;-77
2022/09/08 11:24:04;;;;;;;3.42;1.20;;;22.30;62.70;;;;;;5035755;28;20097;-76
2022/09/08 11:26:45;;;;;;;2.95;1.02;;;22.40;62.10;;;;;;5037799;28;20377;-76
2022/09/08 11:29:15;;;;;;;6.55;1.27;;;22.70;63.70;;;;;;5037758;28;20025;-77
2022/09/08 11:32:15;;;;;;;6.13;1.65;;;22.80;61.30;;;;;;5037975;28;20024;-77
2022/09/08 11:35:14;;;;;;;5.07;1.48;;;22.90;60.40;;;;;;5028647;28;20106;-76
2022/09/08 11:38:11;;;;;;;9.60;1.67;;;22.80;61.40;;;;;;5055854;28;20056;-76
2022/09/08 11:40:59;;;;;;;3.75;1.20;;;22.60;61.00;;;;;;5028455;28;20061;-77
2022/09/08 11:43:47;;;;;;;6.05;1.85;;;22.60;61.90;;;;;;5037763;28;20073;-77
2022/09/08 11:46:28;;;;;;;9.10;1.70;;;22.70;62.80;;;;;;5036191;28;20025;-76
2022/09/08 11:49:00;;;;;;;7.15;1.35;;;22.70;61.70;;;;;;5019460;28;20026;-76
2022/09/08 11:51:26;;;;;;;4.53;1.40;;;22.60;63.80;;;;;;5057173;28;20021;-76
2022/09/08 11:53:58;;;;;;;11.52;2.00;;;22.60;64.80;;;;;;5057170;28;20393;-76
2022/09/08 11:56:56;;;;;;;6.47;1.35;;;22.40;65.70;;;;;;5056607;28;20021;-77
2022/09/08 11:59:30;;;;;;;5.30;1.48;;;22.30;65.80;;;;;;5019781;28;20037;-77
2022/09/08 12:02:35;;;;;;;9.60;1.73;;;22.10;66.50;;;;;;5036982;28;20033;-77
2022/09/08 12:05:28;;;;;;;7.07;1.77;;;22.30;67.00;;;;;;5046162;28;20072;-77
2022/09/08 12:08:18;;;;;;;7.28;2.15;;;22.20;65.90;;;;;;5037313;28;20029;-77
2022/09/08 12:11:12;;;;;;;2.85;0.85;;;22.20;65.30;;;;;;5042107;28;20017;-77
2022/09/08 12:13:51;;;;;;;6.25;1.27;;;22.20;65.10;;;;;;5039119;28;20538;-76
2022/09/08 12:16:42;;;;;;;7.72;1.17;;;22.20;64.10;;;;;;5056392;28;20079;-77
2022/09/08 12:19:45;;;;;;;7.07;2.22;;;22.10;64.60;;;;;;5056600;28;20369;-77
2022/09/08 12:22:23;;;;;;;9.25;1.95;;;22.20;64.50;;;;;;5038554;28;20087;-77
2022/09/08 12:25:18;;;;;;;3.10;0.93;;;22.40;64.70;;;;;;5036781;28;20042;-77
2022/09/08 12:28:11;;;;;;;4.22;0.65;;;22.70;64.80;;;;;;5036518;28;20025;-78
2022/09/08 12:31:02;;;;;;;6.65;0.98;;;22.60;63.70;;;;;;5036797;28;20033;-78
2022/09/08 12:33:28;;;;;;;3.17;0.85;;;22.80;64.00;;;;;;5036409;28;20093;-77
2022/09/08 12:36:05;;;;;;;4.88;1.77;;;22.70;62.70;;;;;;5049612;28;20037;-77
2022/09/08 12:38:48;;;;;;;5.55;1.38;;;22.80;63.50;;;;;;5036451;28;20053;-77
2022/09/08 12:41:46;;;;;;;5.70;1.23;;;23.00;63.70;;;;;;5036278;28;20033;-77
2022/09/08 12:44:49;;;;;;;5.80;1.33;;;23.10;62.90;;;;;;5036211;28;20053;-77
2022/09/08 12:47:48;;;;;;;7.65;1.42;;;23.00;62.10;;;;;;5036342;28;20034;-77
2022/09/08 12:50:36;;;;;;;5.93;1.30;;;23.10;62.80;;;;;;5036239;28;20013;-77
2022/09/08 12:53:29;;;;;;;9.43;1.33;;;23.20;62.10;;;;;;5034327;28;20049;-77
2022/09/08 12:56:01;;;;;;;4.28;0.90;;;23.00;61.30;;;;;;5036145;28;20060;-77
2022/09/08 12:58:38;;;;;;;6.22;1.00;;;23.00;61.10;;;;;;5035969;28;20095;-78
2022/09/08 13:01:20;;;;;;;5.88;1.17;;;22.70;60.30;;;;;;5035775;28;20025;-77
2022/09/08 13:03:47;;;;;;;6.82;1.35;;;22.70;61.80;;;;;;5035802;28;20032;-77
2022/09/08 13:06:25;;;;;;;5.90;1.00;;;22.70;61.60;;;;;;5036486;28;20484;-78
2022/09/08 13:08:56;;;;;;;6.50;1.15;;;22.80;62.20;;;;;;5018262;28;20039;-77
2022/09/08 13:11:46;;;;;;;6.80;1.27;;;22.80;59.80;;;;;;5046586;28;20025;-77
2022/09/08 13:14:14;;;;;;;5.50;1.20;;;22.80;60.30;;;;;;5055601;28;20032;-77
2022/09/08 13:16:58;;;;;;;8.13;1.33;;;22.60;59.70;;;;;;5046937;28;20401;-76
2022/09/08 13:19:34;;;;;;;6.80;1.10;;;22.70;60.60;;;;;;5035827;28;20044;-77
2022/09/08 13:22:29;;;;;;;7.07;1.42;;;22.70;60.70;;;;;;5035773;28;20026;-77
2022/09/08 13:25:15;;;;;;;9.80;1.35;;;22.60;61.60;;;;;;5035560;28;20501;-77
2022/09/08 13:28:13;;;;;;;8.30;1.65;;;22.60;61.30;;;;;;5034666;28;20083;-78
2022/09/08 13:30:51;;;;;;;3.70;1.00;;;22.60;61.20;;;;;;5036292;28;20025;-77
2022/09/08 13:33:35;;;;;;;7.47;1.10;;;22.60;61.30;;;;;;5018024;28;20044;-77
2022/09/08 13:36:19;;;;;;;4.00;0.90;;;22.50;60.10;;;;;;5032469;28;20033;-78
2022/09/08 13:39:05;;;;;;;6.13;1.00;;;22.40;60.50;;;;;;5035630;28;20037;-77
2022/09/08 13:42:00;;;;;;;6.55;1.13;;;22.50;61.00;;;;;;5035078;28;20544;-77